PWSweather.com
Personal Weather Stations
Station Observations
INORDPAS37
Bondues, BonduesFR 59910

BonduesBonduesFR 59910

Lat: 50.7, Lon: 3.09

Elevation: 66

Station Type: NetAtmo

High Low Average
Temperature 45.3°F7.4°C 39.7°F4.3°C 42.5°F5.8°C
Dew Point 37.6°F3.1°C 31.6°F-0.2°C 34.6°F1.4°C
Winds 2.5 mph 4.0 kmh Calm Calm 1.0 mph SW1.6 kmh SW
Wind Gusts 6.9 mph11.1 kmh 1.3 mph2.1 kmh 2.0 mph3.2 kmh
Humidity 79% 78% 79%
Pressure 30.35 in1027.8 mb 30.27 in1025.1 mb -
Precipitation 0.00 in0.0 mm - -
Hour Temp Dew Point Humidity Winds Wind Gusts Pressure Precip Precip Rate Daily Precip Total
12:07 AM 39.7°F4.3°C 31.6°F-0.2°C 78% 0.7 mph W1.1 kmh W 3.1 mph5.0 kmh 30.27 in1025.1 mb 0.00 in0.0 mm 0.00 in0.0 mm 0.00 in0.0 mm
12:27 AM 39.9°F4.4°C 31.8°F-0.1°C 78% 1.3 mph NW2.1 kmh NW 3.1 mph5.0 kmh 30.27 in1025.1 mb 0.00 in0.0 mm 0.00 in0.0 mm 0.00 in0.0 mm
12:48 AM 39.9°F4.4°C 31.8°F-0.1°C 78% 0.7 mph NW1.1 kmh NW 2.5 mph4.0 kmh 30.27 in1025.1 mb 0.00 in0.0 mm 0.00 in0.0 mm 0.00 in0.0 mm
01:07 AM 40.1°F4.5°C 32.0°F0.0°C 78% 0.7 mph N1.1 kmh N 2.5 mph4.0 kmh 30.27 in1025.1 mb 0.00 in0.0 mm 0.00 in0.0 mm 0.00 in0.0 mm
01:28 AM 40.1°F4.5°C 32.0°F0.0°C 78% 1.3 mph NW2.1 kmh NW 4.3 mph6.9 kmh 30.28 in1025.4 mb 0.00 in0.0 mm 0.00 in0.0 mm 0.00 in0.0 mm
01:48 AM 40.3°F4.6°C 32.2°F0.1°C 78% 1.8 mph NW2.9 kmh NW 3.8 mph6.1 kmh 30.28 in1025.4 mb 0.00 in0.0 mm 0.00 in0.0 mm 0.00 in0.0 mm
02:08 AM 40.5°F4.7°C 32.4°F0.2°C 78% 1.8 mph NNW2.9 kmh NNW 4.3 mph6.9 kmh 30.28 in1025.4 mb 0.00 in0.0 mm 0.00 in0.0 mm 0.00 in0.0 mm
02:28 AM 40.5°F4.7°C 32.4°F0.2°C 78% 1.8 mph N2.9 kmh N 4.3 mph6.9 kmh 30.29 in1025.7 mb 0.00 in0.0 mm 0.00 in0.0 mm 0.00 in0.0 mm
02:48 AM 40.5°F4.7°C 32.4°F0.2°C 78% 1.8 mph NNW2.9 kmh NNW 4.3 mph6.9 kmh 30.29 in1025.7 mb 0.00 in0.0 mm 0.00 in0.0 mm 0.00 in0.0 mm
03:09 AM 40.3°F4.6°C 32.2°F0.1°C 78% 2.5 mph NNE4.0 kmh NNE 6.9 mph11.1 kmh 30.29 in1025.7 mb 0.00 in0.0 mm 0.00 in0.0 mm 0.00 in0.0 mm
03:29 AM 40.3°F4.6°C 32.2°F0.1°C 78% 1.3 mph N2.1 kmh N 3.1 mph5.0 kmh 30.29 in1025.7 mb 0.00 in0.0 mm 0.00 in0.0 mm 0.00 in0.0 mm
03:49 AM 40.3°F4.6°C 32.2°F0.1°C 78% 1.3 mph N2.1 kmh N 2.5 mph4.0 kmh 30.30 in1026.1 mb 0.00 in0.0 mm 0.00 in0.0 mm 0.00 in0.0 mm
04:09 AM 40.3°F4.6°C 32.2°F0.1°C 78% 1.3 mph NNW2.1 kmh NNW 2.5 mph4.0 kmh 30.30 in1026.1 mb 0.00 in0.0 mm 0.00 in0.0 mm 0.00 in0.0 mm
04:35 AM 40.5°F4.7°C 32.4°F0.2°C 78% 1.3 mph N2.1 kmh N 3.1 mph5.0 kmh 30.30 in1026.1 mb 0.00 in0.0 mm 0.00 in0.0 mm 0.00 in0.0 mm
04:55 AM 40.6°F4.8°C 32.5°F0.3°C 78% 2.5 mph N4.0 kmh N 4.9 mph7.9 kmh 30.30 in1026.1 mb 0.00 in0.0 mm 0.00 in0.0 mm 0.00 in0.0 mm
05:15 AM 40.6°F4.8°C 32.9°F0.5°C 79% 1.3 mph N2.1 kmh N 3.1 mph5.0 kmh 30.30 in1026.1 mb 0.00 in0.0 mm 0.00 in0.0 mm 0.00 in0.0 mm
05:35 AM 40.6°F4.8°C 32.9°F0.5°C 79% 0.7 mph NNW1.1 kmh NNW 1.3 mph2.1 kmh 30.31 in1026.4 mb 0.00 in0.0 mm 0.00 in0.0 mm 0.00 in0.0 mm
05:55 AM 40.8°F4.9°C 33.1°F0.6°C 79% 0.7 mph NNE1.1 kmh NNE 1.3 mph2.1 kmh 30.31 in1026.4 mb 0.00 in0.0 mm 0.00 in0.0 mm 0.00 in0.0 mm
06:15 AM 40.8°F4.9°C 33.1°F0.6°C 79% Calm Calm 1.3 mph2.1 kmh 30.31 in1026.4 mb 0.00 in0.0 mm 0.00 in0.0 mm 0.00 in0.0 mm
06:35 AM 41.0°F5.0°C 33.3°F0.7°C 79% 0.7 mph W1.1 kmh W 1.3 mph2.1 kmh 30.31 in1026.4 mb 0.00 in0.0 mm 0.00 in0.0 mm 0.00 in0.0 mm
06:55 AM 41.0°F5.0°C 33.3°F0.7°C 79% 1.3 mph W2.1 kmh W 3.1 mph5.0 kmh 30.31 in1026.4 mb 0.00 in0.0 mm 0.00 in0.0 mm 0.00 in0.0 mm
07:15 AM 41.2°F5.1°C 33.4°F0.8°C 79% 0.7 mph W1.1 kmh W 1.8 mph2.9 kmh 30.31 in1026.4 mb 0.00 in0.0 mm 0.00 in0.0 mm 0.00 in0.0 mm
07:21 AM 41.2°F5.1°C 33.4°F0.8°C 79% 0.7 mph W1.1 kmh W 1.8 mph2.9 kmh 30.32 in1026.8 mb 0.00 in0.0 mm 0.00 in0.0 mm 0.00 in0.0 mm
07:55 AM 41.2°F5.1°C 33.4°F0.8°C 79% 0.7 mph W1.1 kmh W 2.5 mph4.0 kmh 30.32 in1026.8 mb 0.00 in0.0 mm 0.00 in0.0 mm 0.00 in0.0 mm
08:01 AM 41.4°F5.2°C 33.6°F0.9°C 79% 0.7 mph W1.1 kmh W 1.8 mph2.9 kmh 30.33 in1027.1 mb 0.00 in0.0 mm 0.00 in0.0 mm 0.00 in0.0 mm
08:21 AM 41.4°F5.2°C 33.6°F0.9°C 79% 1.3 mph WNW2.1 kmh WNW 3.1 mph5.0 kmh 30.33 in1027.1 mb 0.00 in0.0 mm 0.00 in0.0 mm 0.00 in0.0 mm
08:41 AM 41.4°F5.2°C 33.6°F0.9°C 79% 1.3 mph W2.1 kmh W 3.1 mph5.0 kmh 30.33 in1027.1 mb 0.00 in0.0 mm 0.00 in0.0 mm 0.00 in0.0 mm
09:01 AM 41.4°F5.2°C 33.6°F0.9°C 79% 0.7 mph W1.1 kmh W 1.8 mph2.9 kmh 30.34 in1027.4 mb 0.00 in0.0 mm 0.00 in0.0 mm 0.00 in0.0 mm
09:22 AM 41.4°F5.2°C 33.6°F0.9°C 79% 1.3 mph WNW2.1 kmh WNW 2.5 mph4.0 kmh 30.34 in1027.4 mb 0.00 in0.0 mm 0.00 in0.0 mm 0.00 in0.0 mm
09:42 AM 41.5°F5.3°C 33.8°F1.0°C 79% 0.7 mph NW1.1 kmh NW 1.8 mph2.9 kmh 30.34 in1027.4 mb 0.00 in0.0 mm 0.00 in0.0 mm 0.00 in0.0 mm
10:02 AM 41.5°F5.3°C 33.8°F1.0°C 79% 0.7 mph NW1.1 kmh NW 1.8 mph2.9 kmh 30.34 in1027.4 mb 0.00 in0.0 mm 0.00 in0.0 mm 0.00 in0.0 mm
10:22 AM 41.7°F5.4°C 34.0°F1.1°C 79% 0.7 mph NW1.1 kmh NW 1.8 mph2.9 kmh 30.34 in1027.4 mb 0.00 in0.0 mm 0.00 in0.0 mm 0.00 in0.0 mm
10:42 AM 42.1°F5.6°C 34.3°F1.3°C 79% 0.7 mph NW1.1 kmh NW 1.8 mph2.9 kmh 30.35 in1027.8 mb 0.00 in0.0 mm 0.00 in0.0 mm 0.00 in0.0 mm
11:03 AM 42.3°F5.7°C 34.5°F1.4°C 79% 0.7 mph NW1.1 kmh NW 1.3 mph2.1 kmh 30.35 in1027.8 mb 0.00 in0.0 mm 0.00 in0.0 mm 0.00 in0.0 mm
11:22 AM 42.4°F5.8°C 34.7°F1.5°C 79% 0.7 mph N1.1 kmh N 1.8 mph2.9 kmh 30.34 in1027.4 mb 0.00 in0.0 mm 0.00 in0.0 mm 0.00 in0.0 mm
11:43 AM 42.8°F6.0°C 35.1°F1.7°C 79% 0.7 mph NW1.1 kmh NW 1.8 mph2.9 kmh 30.34 in1027.4 mb 0.00 in0.0 mm 0.00 in0.0 mm 0.00 in0.0 mm
12:03 PM 43.2°F6.2°C 35.4°F1.9°C 79% 0.7 mph N1.1 kmh N 1.8 mph2.9 kmh 30.33 in1027.1 mb 0.00 in0.0 mm 0.00 in0.0 mm 0.00 in0.0 mm
12:23 PM 43.9°F6.6°C 36.1°F2.3°C 79% 1.3 mph ENE2.1 kmh ENE 2.5 mph4.0 kmh 30.33 in1027.1 mb 0.00 in0.0 mm 0.00 in0.0 mm 0.00 in0.0 mm
12:55 PM 44.1°F6.7°C 36.3°F2.4°C 79% 0.7 mph N1.1 kmh N 1.8 mph2.9 kmh 30.33 in1027.1 mb 0.00 in0.0 mm 0.00 in0.0 mm 0.00 in0.0 mm
01:08 PM 44.2°F6.8°C 36.5°F2.5°C 79% 1.3 mph NE2.1 kmh NE 2.5 mph4.0 kmh 30.32 in1026.8 mb 0.00 in0.0 mm 0.00 in0.0 mm 0.00 in0.0 mm
01:29 PM 44.4°F6.9°C 36.7°F2.6°C 79% 0.7 mph E1.1 kmh E 2.5 mph4.0 kmh 30.32 in1026.8 mb 0.00 in0.0 mm 0.00 in0.0 mm 0.00 in0.0 mm
01:48 PM 44.4°F6.9°C 36.7°F2.6°C 79% 0.7 mph E1.1 kmh E 1.8 mph2.9 kmh 30.32 in1026.8 mb 0.00 in0.0 mm 0.00 in0.0 mm 0.00 in0.0 mm
02:09 PM 44.2°F6.8°C 36.5°F2.5°C 79% 0.7 mph E1.1 kmh E 1.8 mph2.9 kmh 30.32 in1026.8 mb 0.00 in0.0 mm 0.00 in0.0 mm 0.00 in0.0 mm
02:29 PM 44.4°F6.9°C 36.7°F2.6°C 79% 1.3 mph ESE2.1 kmh ESE 3.1 mph5.0 kmh 30.32 in1026.8 mb 0.00 in0.0 mm 0.00 in0.0 mm 0.00 in0.0 mm
02:49 PM 44.8°F7.1°C 37.0°F2.8°C 79% 0.7 mph E1.1 kmh E 2.5 mph4.0 kmh 30.31 in1026.4 mb 0.00 in0.0 mm 0.00 in0.0 mm 0.00 in0.0 mm
03:15 PM 45.0°F7.2°C 37.2°F2.9°C 79% 0.7 mph SSE1.1 kmh SSE 2.5 mph4.0 kmh 30.32 in1026.8 mb 0.00 in0.0 mm 0.00 in0.0 mm 0.00 in0.0 mm
03:35 PM 45.1°F7.3°C 37.4°F3.0°C 79% 1.8 mph ESE2.9 kmh ESE 4.3 mph6.9 kmh 30.32 in1026.8 mb 0.00 in0.0 mm 0.00 in0.0 mm 0.00 in0.0 mm
03:55 PM 45.1°F7.3°C 37.4°F3.0°C 79% 1.3 mph NE2.1 kmh NE 3.1 mph5.0 kmh 30.32 in1026.8 mb 0.00 in0.0 mm 0.00 in0.0 mm 0.00 in0.0 mm
04:15 PM 45.3°F7.4°C 37.6°F3.1°C 79% 0.7 mph E1.1 kmh E 2.5 mph4.0 kmh 30.32 in1026.8 mb 0.00 in0.0 mm 0.00 in0.0 mm 0.00 in0.0 mm
04:35 PM 45.1°F7.3°C 37.4°F3.0°C 79% 0.7 mph SE1.1 kmh SE 1.8 mph2.9 kmh 30.32 in1026.8 mb 0.00 in0.0 mm 0.00 in0.0 mm 0.00 in0.0 mm
04:55 PM 45.1°F7.3°C 37.4°F3.0°C 79% 0.7 mph S1.1 kmh S 1.8 mph2.9 kmh 30.32 in1026.8 mb 0.00 in0.0 mm 0.00 in0.0 mm 0.00 in0.0 mm
05:15 PM 45.0°F7.2°C 37.2°F2.9°C 79% 0.7 mph NW1.1 kmh NW 1.3 mph2.1 kmh 30.32 in1026.8 mb 0.00 in0.0 mm 0.00 in0.0 mm 0.00 in0.0 mm
05:35 PM 45.0°F7.2°C 37.2°F2.9°C 79% 0.7 mph W1.1 kmh W 1.3 mph2.1 kmh 30.32 in1026.8 mb 0.00 in0.0 mm 0.00 in0.0 mm 0.00 in0.0 mm
05:55 PM 44.8°F7.1°C 37.0°F2.8°C 79% 0.7 mph SE1.1 kmh SE 1.3 mph2.1 kmh 30.32 in1026.8 mb 0.00 in0.0 mm 0.00 in0.0 mm 0.00 in0.0 mm
06:01 PM 44.6°F7.0°C 36.9°F2.7°C 79% 0.7 mph W1.1 kmh W 1.3 mph2.1 kmh 30.32 in1026.8 mb 0.00 in0.0 mm 0.00 in0.0 mm 0.00 in0.0 mm
06:35 PM 44.4°F6.9°C 36.3°F2.4°C 78% 0.7 mph W1.1 kmh W 1.3 mph2.1 kmh 30.32 in1026.8 mb 0.00 in0.0 mm 0.00 in0.0 mm 0.00 in0.0 mm
06:41 PM 44.2°F6.8°C 36.1°F2.3°C 78% 0.7 mph W1.1 kmh W 1.8 mph2.9 kmh 30.32 in1026.8 mb 0.00 in0.0 mm 0.00 in0.0 mm 0.00 in0.0 mm
07:01 PM 44.1°F6.7°C 36.0°F2.2°C 78% 0.7 mph W1.1 kmh W 1.3 mph2.1 kmh 30.33 in1027.1 mb 0.00 in0.0 mm 0.00 in0.0 mm 0.00 in0.0 mm
07:21 PM 43.9°F6.6°C 35.8°F2.1°C 78% 0.7 mph NW1.1 kmh NW 1.3 mph2.1 kmh 30.32 in1026.8 mb 0.00 in0.0 mm 0.00 in0.0 mm 0.00 in0.0 mm
07:41 PM 43.7°F6.5°C 35.6°F2.0°C 78% 0.7 mph E1.1 kmh E 1.3 mph2.1 kmh 30.32 in1026.8 mb 0.00 in0.0 mm 0.00 in0.0 mm 0.00 in0.0 mm
08:01 PM 43.5°F6.4°C 35.4°F1.9°C 78% 0.7 mph E1.1 kmh E 2.5 mph4.0 kmh 30.32 in1026.8 mb 0.00 in0.0 mm 0.00 in0.0 mm 0.00 in0.0 mm
08:21 PM 43.5°F6.4°C 35.4°F1.9°C 78% 0.7 mph SE1.1 kmh SE 2.5 mph4.0 kmh 30.32 in1026.8 mb 0.00 in0.0 mm 0.00 in0.0 mm 0.00 in0.0 mm
08:42 PM 43.5°F6.4°C 35.4°F1.9°C 78% 1.3 mph SSE2.1 kmh SSE 3.1 mph5.0 kmh 30.32 in1026.8 mb 0.00 in0.0 mm 0.00 in0.0 mm 0.00 in0.0 mm
09:02 PM 43.5°F6.4°C 35.4°F1.9°C 78% 1.3 mph SSE2.1 kmh SSE 3.1 mph5.0 kmh 30.32 in1026.8 mb 0.00 in0.0 mm 0.00 in0.0 mm 0.00 in0.0 mm
09:22 PM 43.3°F6.3°C 35.2°F1.8°C 78% 1.3 mph SE2.1 kmh SE 3.8 mph6.1 kmh 30.32 in1026.8 mb 0.00 in0.0 mm 0.00 in0.0 mm 0.00 in0.0 mm
09:41 PM 43.3°F6.3°C 35.2°F1.8°C 78% 0.7 mph SE1.1 kmh SE 2.5 mph4.0 kmh 30.32 in1026.8 mb 0.00 in0.0 mm 0.00 in0.0 mm 0.00 in0.0 mm
10:01 PM 43.2°F6.2°C 35.1°F1.7°C 78% 1.3 mph SE2.1 kmh SE 3.1 mph5.0 kmh 30.32 in1026.8 mb 0.00 in0.0 mm 0.00 in0.0 mm 0.00 in0.0 mm
10:22 PM 43.0°F6.1°C 34.9°F1.6°C 78% 0.7 mph S1.1 kmh S 2.5 mph4.0 kmh 30.31 in1026.4 mb 0.00 in0.0 mm 0.00 in0.0 mm 0.00 in0.0 mm
10:42 PM 42.6°F5.9°C 34.5°F1.4°C 78% 0.7 mph SSE1.1 kmh SSE 2.5 mph4.0 kmh 30.31 in1026.4 mb 0.00 in0.0 mm 0.00 in0.0 mm 0.00 in0.0 mm
11:02 PM 42.3°F5.7°C 34.2°F1.2°C 78% 0.7 mph SSE1.1 kmh SSE 2.5 mph4.0 kmh 30.30 in1026.1 mb 0.00 in0.0 mm 0.00 in0.0 mm 0.00 in0.0 mm
11:23 PM 42.1°F5.6°C 34.0°F1.1°C 78% 0.7 mph SSW1.1 kmh SSW 1.8 mph2.9 kmh 30.30 in1026.1 mb 0.00 in0.0 mm 0.00 in0.0 mm 0.00 in0.0 mm
11:42 PM 41.9°F5.5°C 33.8°F1.0°C 78% 0.7 mph SW1.1 kmh SW 1.3 mph2.1 kmh 30.30 in1026.1 mb 0.00 in0.0 mm 0.00 in0.0 mm 0.00 in0.0 mm